<?xml version="1.0" encoding="utf-8"?>
<gpx xmlns:xsi="http://www.w3.org/2001/XMLSchema-instance" xmlns:xsd="http://www.w3.org/2001/XMLSchema" version="1.1" creator="Shapelink.com" xmlns="http://www.topografix.com/GPX/1/1" xmlns:gpxtpx="http://www.garmin.com/xmlschemas/TrackPointExtension/v1">
  <metadata>
    <name>Cycling 5/28/20 7:39 pm 4.07 km, 2020-05-28</name>
    <desc></desc>
    <author><name>Marian Moron</name></author> 
    <time>2020-05-28T19:39:48Z</time>
  </metadata>
  <trk>
    <name>Cycling 5/28/20 7:39 pm 4.07 km, 2020-05-28</name>
    <trkseg>
      <trkpt lat="51.215852" lon="4.472025">
        <ele>6.9</ele>
        <time>2020-05-28T19:39:48Z</time>
      </trkpt>
      <trkpt lat="51.21594" lon="4.471976">
        <ele>6.8</ele>
        <time>2020-05-28T19:39:54Z</time>
      </trkpt>
      <trkpt lat="51.216022" lon="4.471936">
        <ele>6.7</ele>
        <time>2020-05-28T19:39:57Z</time>
      </trkpt>
      <trkpt lat="51.216101" lon="4.471874">
        <ele>6.7</ele>
        <time>2020-05-28T19:40:02Z</time>
      </trkpt>
      <trkpt lat="51.216193" lon="4.471844">
        <ele>6.8</ele>
        <time>2020-05-28T19:40:06Z</time>
      </trkpt>
      <trkpt lat="51.216285" lon="4.471778">
        <ele>7</ele>
        <time>2020-05-28T19:40:10Z</time>
      </trkpt>
      <trkpt lat="51.216367" lon="4.471761">
        <ele>7.3</ele>
        <time>2020-05-28T19:40:14Z</time>
      </trkpt>
      <trkpt lat="51.216399" lon="4.471636">
        <ele>7.6</ele>
        <time>2020-05-28T19:40:19Z</time>
      </trkpt>
      <trkpt lat="51.216413" lon="4.471485">
        <ele>8.1</ele>
        <time>2020-05-28T19:40:24Z</time>
      </trkpt>
      <trkpt lat="51.216411" lon="4.471337">
        <ele>8.5</ele>
        <time>2020-05-28T19:40:27Z</time>
      </trkpt>
      <trkpt lat="51.216408" lon="4.471171">
        <ele>8.8</ele>
        <time>2020-05-28T19:40:30Z</time>
      </trkpt>
      <trkpt lat="51.216411" lon="4.471008">
        <ele>9</ele>
        <time>2020-05-28T19:40:34Z</time>
      </trkpt>
      <trkpt lat="51.216429" lon="4.470878">
        <ele>9.1</ele>
        <time>2020-05-28T19:40:37Z</time>
      </trkpt>
      <trkpt lat="51.216452" lon="4.470738">
        <ele>9.1</ele>
        <time>2020-05-28T19:40:40Z</time>
      </trkpt>
      <trkpt lat="51.216475" lon="4.470591">
        <ele>9</ele>
        <time>2020-05-28T19:40:43Z</time>
      </trkpt>
      <trkpt lat="51.21657" lon="4.470543">
        <ele>8.8</ele>
        <time>2020-05-28T19:40:48Z</time>
      </trkpt>
      <trkpt lat="51.216662" lon="4.470576">
        <ele>8.6</ele>
        <time>2020-05-28T19:40:51Z</time>
      </trkpt>
      <trkpt lat="51.21677" lon="4.47062">
        <ele>8.4</ele>
        <time>2020-05-28T19:40:54Z</time>
      </trkpt>
      <trkpt lat="51.216881" lon="4.470665">
        <ele>8</ele>
        <time>2020-05-28T19:40:57Z</time>
      </trkpt>
      <trkpt lat="51.216986" lon="4.47066">
        <ele>7.5</ele>
        <time>2020-05-28T19:41:00Z</time>
      </trkpt>
      <trkpt lat="51.217053" lon="4.470566">
        <ele>7.1</ele>
        <time>2020-05-28T19:41:03Z</time>
      </trkpt>
      <trkpt lat="51.217081" lon="4.470417">
        <ele>6.7</ele>
        <time>2020-05-28T19:41:06Z</time>
      </trkpt>
      <trkpt lat="51.217127" lon="4.470269">
        <ele>6.5</ele>
        <time>2020-05-28T19:41:09Z</time>
      </trkpt>
      <trkpt lat="51.21718" lon="4.470126">
        <ele>6.4</ele>
        <time>2020-05-28T19:41:12Z</time>
      </trkpt>
      <trkpt lat="51.217248" lon="4.470022">
        <ele>6.3</ele>
        <time>2020-05-28T19:41:15Z</time>
      </trkpt>
      <trkpt lat="51.217337" lon="4.469975">
        <ele>6.2</ele>
        <time>2020-05-28T19:41:18Z</time>
      </trkpt>
      <trkpt lat="51.217438" lon="4.470016">
        <ele>6.2</ele>
        <time>2020-05-28T19:41:22Z</time>
      </trkpt>
      <trkpt lat="51.217506" lon="4.469897">
        <ele>6.1</ele>
        <time>2020-05-28T19:41:26Z</time>
      </trkpt>
      <trkpt lat="51.217524" lon="4.469759">
        <ele>6.1</ele>
        <time>2020-05-28T19:41:29Z</time>
      </trkpt>
      <trkpt lat="51.217543" lon="4.469597">
        <ele>6.1</ele>
        <time>2020-05-28T19:41:32Z</time>
      </trkpt>
      <trkpt lat="51.21755" lon="4.469422">
        <ele>6.1</ele>
        <time>2020-05-28T19:41:35Z</time>
      </trkpt>
      <trkpt lat="51.217554" lon="4.469257">
        <ele>6.1</ele>
        <time>2020-05-28T19:41:38Z</time>
      </trkpt>
      <trkpt lat="51.217554" lon="4.4691">
        <ele>6.2</ele>
        <time>2020-05-28T19:41:41Z</time>
      </trkpt>
      <trkpt lat="51.217568" lon="4.468971">
        <ele>6.3</ele>
        <time>2020-05-28T19:41:44Z</time>
      </trkpt>
      <trkpt lat="51.217545" lon="4.468838">
        <ele>6.5</ele>
        <time>2020-05-28T19:41:48Z</time>
      </trkpt>
      <trkpt lat="51.217526" lon="4.46869">
        <ele>6.6</ele>
        <time>2020-05-28T19:41:53Z</time>
      </trkpt>
      <trkpt lat="51.217547" lon="4.46856">
        <ele>6.8</ele>
        <time>2020-05-28T19:41:56Z</time>
      </trkpt>
      <trkpt lat="51.21758" lon="4.468406">
        <ele>6.9</ele>
        <time>2020-05-28T19:42:00Z</time>
      </trkpt>
      <trkpt lat="51.217623" lon="4.468279">
        <ele>7.2</ele>
        <time>2020-05-28T19:42:03Z</time>
      </trkpt>
      <trkpt lat="51.217599" lon="4.468122">
        <ele>7.4</ele>
        <time>2020-05-28T19:42:07Z</time>
      </trkpt>
      <trkpt lat="51.217596" lon="4.467942">
        <ele>7.6</ele>
        <time>2020-05-28T19:42:11Z</time>
      </trkpt>
      <trkpt lat="51.217591" lon="4.467782">
        <ele>7.9</ele>
        <time>2020-05-28T19:42:14Z</time>
      </trkpt>
      <trkpt lat="51.217606" lon="4.467655">
        <ele>8.1</ele>
        <time>2020-05-28T19:42:17Z</time>
      </trkpt>
      <trkpt lat="51.217633" lon="4.467501">
        <ele>8.3</ele>
        <time>2020-05-28T19:42:21Z</time>
      </trkpt>
      <trkpt lat="51.217643" lon="4.467337">
        <ele>8.5</ele>
        <time>2020-05-28T19:42:25Z</time>
      </trkpt>
      <trkpt lat="51.217638" lon="4.467186">
        <ele>8.5</ele>
        <time>2020-05-28T19:42:28Z</time>
      </trkpt>
      <trkpt lat="51.217632" lon="4.46704">
        <ele>8.6</ele>
        <time>2020-05-28T19:42:31Z</time>
      </trkpt>
      <trkpt lat="51.217652" lon="4.466863">
        <ele>8.7</ele>
        <time>2020-05-28T19:42:34Z</time>
      </trkpt>
      <trkpt lat="51.217653" lon="4.466681">
        <ele>8.9</ele>
        <time>2020-05-28T19:42:37Z</time>
      </trkpt>
      <trkpt lat="51.217653" lon="4.466509">
        <ele>8.9</ele>
        <time>2020-05-28T19:42:40Z</time>
      </trkpt>
      <trkpt lat="51.217651" lon="4.466358">
        <ele>9</ele>
        <time>2020-05-28T19:42:43Z</time>
      </trkpt>
      <trkpt lat="51.217666" lon="4.466179">
        <ele>9</ele>
        <time>2020-05-28T19:42:46Z</time>
      </trkpt>
      <trkpt lat="51.217674" lon="4.466041">
        <ele>8.9</ele>
        <time>2020-05-28T19:42:48Z</time>
      </trkpt>
      <trkpt lat="51.217682" lon="4.465845">
        <ele>8.9</ele>
        <time>2020-05-28T19:42:51Z</time>
      </trkpt>
      <trkpt lat="51.217683" lon="4.465713">
        <ele>8.9</ele>
        <time>2020-05-28T19:42:53Z</time>
      </trkpt>
      <trkpt lat="51.217686" lon="4.465576">
        <ele>8.9</ele>
        <time>2020-05-28T19:42:55Z</time>
      </trkpt>
      <trkpt lat="51.217692" lon="4.465446">
        <ele>9</ele>
        <time>2020-05-28T19:42:57Z</time>
      </trkpt>
      <trkpt lat="51.217698" lon="4.465308">
        <ele>9.1</ele>
        <time>2020-05-28T19:42:59Z</time>
      </trkpt>
      <trkpt lat="51.217705" lon="4.465126">
        <ele>9.1</ele>
        <time>2020-05-28T19:43:02Z</time>
      </trkpt>
      <trkpt lat="51.217701" lon="4.464966">
        <ele>9</ele>
        <time>2020-05-28T19:43:05Z</time>
      </trkpt>
      <trkpt lat="51.217699" lon="4.464808">
        <ele>8.8</ele>
        <time>2020-05-28T19:43:08Z</time>
      </trkpt>
      <trkpt lat="51.217699" lon="4.464634">
        <ele>8.5</ele>
        <time>2020-05-28T19:43:11Z</time>
      </trkpt>
      <trkpt lat="51.217723" lon="4.464465">
        <ele>8.3</ele>
        <time>2020-05-28T19:43:14Z</time>
      </trkpt>
      <trkpt lat="51.217733" lon="4.464281">
        <ele>8.1</ele>
        <time>2020-05-28T19:43:17Z</time>
      </trkpt>
      <trkpt lat="51.217729" lon="4.46412">
        <ele>7.9</ele>
        <time>2020-05-28T19:43:20Z</time>
      </trkpt>
      <trkpt lat="51.217755" lon="4.463951">
        <ele>7.8</ele>
        <time>2020-05-28T19:43:23Z</time>
      </trkpt>
      <trkpt lat="51.217773" lon="4.46379">
        <ele>7.8</ele>
        <time>2020-05-28T19:43:26Z</time>
      </trkpt>
      <trkpt lat="51.217769" lon="4.463646">
        <ele>7.9</ele>
        <time>2020-05-28T19:43:29Z</time>
      </trkpt>
      <trkpt lat="51.217764" lon="4.463474">
        <ele>8</ele>
        <time>2020-05-28T19:43:32Z</time>
      </trkpt>
      <trkpt lat="51.217783" lon="4.463299">
        <ele>8.1</ele>
        <time>2020-05-28T19:43:35Z</time>
      </trkpt>
      <trkpt lat="51.217793" lon="4.463128">
        <ele>8.2</ele>
        <time>2020-05-28T19:43:38Z</time>
      </trkpt>
      <trkpt lat="51.217799" lon="4.462985">
        <ele>8.4</ele>
        <time>2020-05-28T19:43:41Z</time>
      </trkpt>
      <trkpt lat="51.217832" lon="4.462822">
        <ele>8.5</ele>
        <time>2020-05-28T19:43:45Z</time>
      </trkpt>
      <trkpt lat="51.217826" lon="4.462681">
        <ele>8.6</ele>
        <time>2020-05-28T19:43:48Z</time>
      </trkpt>
      <trkpt lat="51.21785" lon="4.46253">
        <ele>8.7</ele>
        <time>2020-05-28T19:43:51Z</time>
      </trkpt>
      <trkpt lat="51.217856" lon="4.462372">
        <ele>8.8</ele>
        <time>2020-05-28T19:43:54Z</time>
      </trkpt>
      <trkpt lat="51.217859" lon="4.462219">
        <ele>8.9</ele>
        <time>2020-05-28T19:43:57Z</time>
      </trkpt>
      <trkpt lat="51.217862" lon="4.462068">
        <ele>8.9</ele>
        <time>2020-05-28T19:44:00Z</time>
      </trkpt>
      <trkpt lat="51.217856" lon="4.461918">
        <ele>8.7</ele>
        <time>2020-05-28T19:44:03Z</time>
      </trkpt>
      <trkpt lat="51.217824" lon="4.461762">
        <ele>8.5</ele>
        <time>2020-05-28T19:44:06Z</time>
      </trkpt>
      <trkpt lat="51.217838" lon="4.4616">
        <ele>8.5</ele>
        <time>2020-05-28T19:44:09Z</time>
      </trkpt>
      <trkpt lat="51.217856" lon="4.46144">
        <ele>8.4</ele>
        <time>2020-05-28T19:44:12Z</time>
      </trkpt>
      <trkpt lat="51.217906" lon="4.46132">
        <ele>8.3</ele>
        <time>2020-05-28T19:44:15Z</time>
      </trkpt>
      <trkpt lat="51.217997" lon="4.461266">
        <ele>8.2</ele>
        <time>2020-05-28T19:44:18Z</time>
      </trkpt>
      <trkpt lat="51.218098" lon="4.461225">
        <ele>8.1</ele>
        <time>2020-05-28T19:44:21Z</time>
      </trkpt>
      <trkpt lat="51.218199" lon="4.461176">
        <ele>8</ele>
        <time>2020-05-28T19:44:24Z</time>
      </trkpt>
      <trkpt lat="51.218298" lon="4.461104">
        <ele>7.9</ele>
        <time>2020-05-28T19:44:27Z</time>
      </trkpt>
      <trkpt lat="51.218397" lon="4.46106">
        <ele>7.7</ele>
        <time>2020-05-28T19:44:30Z</time>
      </trkpt>
      <trkpt lat="51.218483" lon="4.461006">
        <ele>7.6</ele>
        <time>2020-05-28T19:44:33Z</time>
      </trkpt>
      <trkpt lat="51.218565" lon="4.460946">
        <ele>7.6</ele>
        <time>2020-05-28T19:44:36Z</time>
      </trkpt>
      <trkpt lat="51.218655" lon="4.460866">
        <ele>7.6</ele>
        <time>2020-05-28T19:44:39Z</time>
      </trkpt>
      <trkpt lat="51.218738" lon="4.460803">
        <ele>7.6</ele>
        <time>2020-05-28T19:44:42Z</time>
      </trkpt>
      <trkpt lat="51.218819" lon="4.460758">
        <ele>7.6</ele>
        <time>2020-05-28T19:44:45Z</time>
      </trkpt>
      <trkpt lat="51.218903" lon="4.46068">
        <ele>7.6</ele>
        <time>2020-05-28T19:44:48Z</time>
      </trkpt>
      <trkpt lat="51.218996" lon="4.460606">
        <ele>7.6</ele>
        <time>2020-05-28T19:44:51Z</time>
      </trkpt>
      <trkpt lat="51.219095" lon="4.460545">
        <ele>7.6</ele>
        <time>2020-05-28T19:44:54Z</time>
      </trkpt>
      <trkpt lat="51.219198" lon="4.460478">
        <ele>7.6</ele>
        <time>2020-05-28T19:44:57Z</time>
      </trkpt>
      <trkpt lat="51.219296" lon="4.46043">
        <ele>7.5</ele>
        <time>2020-05-28T19:45:00Z</time>
      </trkpt>
      <trkpt lat="51.219391" lon="4.460361">
        <ele>7.5</ele>
        <time>2020-05-28T19:45:03Z</time>
      </trkpt>
      <trkpt lat="51.219483" lon="4.460284">
        <ele>7.5</ele>
        <time>2020-05-28T19:45:06Z</time>
      </trkpt>
      <trkpt lat="51.219579" lon="4.460221">
        <ele>7.4</ele>
        <time>2020-05-28T19:45:09Z</time>
      </trkpt>
      <trkpt lat="51.219679" lon="4.460178">
        <ele>7.3</ele>
        <time>2020-05-28T19:45:12Z</time>
      </trkpt>
      <trkpt lat="51.219777" lon="4.460097">
        <ele>7.2</ele>
        <time>2020-05-28T19:45:15Z</time>
      </trkpt>
      <trkpt lat="51.219861" lon="4.460055">
        <ele>7</ele>
        <time>2020-05-28T19:45:18Z</time>
      </trkpt>
      <trkpt lat="51.219939" lon="4.460003">
        <ele>6.8</ele>
        <time>2020-05-28T19:45:21Z</time>
      </trkpt>
      <trkpt lat="51.220025" lon="4.459934">
        <ele>6.5</ele>
        <time>2020-05-28T19:45:24Z</time>
      </trkpt>
      <trkpt lat="51.220108" lon="4.45987">
        <ele>6.4</ele>
        <time>2020-05-28T19:45:27Z</time>
      </trkpt>
      <trkpt lat="51.22019" lon="4.459808">
        <ele>6.1</ele>
        <time>2020-05-28T19:45:30Z</time>
      </trkpt>
      <trkpt lat="51.220267" lon="4.459766">
        <ele>5.9</ele>
        <time>2020-05-28T19:45:33Z</time>
      </trkpt>
      <trkpt lat="51.220305" lon="4.45963">
        <ele>5.6</ele>
        <time>2020-05-28T19:45:37Z</time>
      </trkpt>
      <trkpt lat="51.220299" lon="4.459494">
        <ele>5.4</ele>
        <time>2020-05-28T19:45:40Z</time>
      </trkpt>
      <trkpt lat="51.2203" lon="4.459364">
        <ele>5.2</ele>
        <time>2020-05-28T19:45:43Z</time>
      </trkpt>
      <trkpt lat="51.220296" lon="4.459212">
        <ele>5</ele>
        <time>2020-05-28T19:45:46Z</time>
      </trkpt>
      <trkpt lat="51.220312" lon="4.459049">
        <ele>4.9</ele>
        <time>2020-05-28T19:45:49Z</time>
      </trkpt>
      <trkpt lat="51.220328" lon="4.458881">
        <ele>4.9</ele>
        <time>2020-05-28T19:45:52Z</time>
      </trkpt>
      <trkpt lat="51.220336" lon="4.458752">
        <ele>4.9</ele>
        <time>2020-05-28T19:45:54Z</time>
      </trkpt>
      <trkpt lat="51.220339" lon="4.458615">
        <ele>5</ele>
        <time>2020-05-28T19:45:56Z</time>
      </trkpt>
      <trkpt lat="51.220347" lon="4.458475">
        <ele>5.1</ele>
        <time>2020-05-28T19:45:58Z</time>
      </trkpt>
      <trkpt lat="51.220351" lon="4.458334">
        <ele>5.3</ele>
        <time>2020-05-28T19:46:00Z</time>
      </trkpt>
      <trkpt lat="51.220358" lon="4.458196">
        <ele>5.5</ele>
        <time>2020-05-28T19:46:02Z</time>
      </trkpt>
      <trkpt lat="51.220381" lon="4.45801">
        <ele>5.6</ele>
        <time>2020-05-28T19:46:05Z</time>
      </trkpt>
      <trkpt lat="51.220391" lon="4.457878">
        <ele>5.8</ele>
        <time>2020-05-28T19:46:07Z</time>
      </trkpt>
      <trkpt lat="51.220398" lon="4.45774">
        <ele>6</ele>
        <time>2020-05-28T19:46:09Z</time>
      </trkpt>
      <trkpt lat="51.220399" lon="4.4576">
        <ele>6.3</ele>
        <time>2020-05-28T19:46:11Z</time>
      </trkpt>
      <trkpt lat="51.220398" lon="4.457456">
        <ele>6.5</ele>
        <time>2020-05-28T19:46:13Z</time>
      </trkpt>
      <trkpt lat="51.2204" lon="4.457319">
        <ele>6.7</ele>
        <time>2020-05-28T19:46:15Z</time>
      </trkpt>
      <trkpt lat="51.220403" lon="4.457188">
        <ele>6.9</ele>
        <time>2020-05-28T19:46:17Z</time>
      </trkpt>
      <trkpt lat="51.220409" lon="4.457006">
        <ele>7.1</ele>
        <time>2020-05-28T19:46:20Z</time>
      </trkpt>
      <trkpt lat="51.220408" lon="4.456846">
        <ele>7.3</ele>
        <time>2020-05-28T19:46:23Z</time>
      </trkpt>
      <trkpt lat="51.220384" lon="4.456712">
        <ele>7.4</ele>
        <time>2020-05-28T19:46:26Z</time>
      </trkpt>
      <trkpt lat="51.22036" lon="4.456552">
        <ele>7.4</ele>
        <time>2020-05-28T19:46:29Z</time>
      </trkpt>
      <trkpt lat="51.220338" lon="4.456394">
        <ele>7.4</ele>
        <time>2020-05-28T19:46:32Z</time>
      </trkpt>
      <trkpt lat="51.220321" lon="4.456238">
        <ele>7.3</ele>
        <time>2020-05-28T19:46:35Z</time>
      </trkpt>
      <trkpt lat="51.220273" lon="4.456079">
        <ele>7.1</ele>
        <time>2020-05-28T19:46:38Z</time>
      </trkpt>
      <trkpt lat="51.220206" lon="4.455925">
        <ele>6.8</ele>
        <time>2020-05-28T19:46:41Z</time>
      </trkpt>
      <trkpt lat="51.220128" lon="4.455789">
        <ele>6.5</ele>
        <time>2020-05-28T19:46:44Z</time>
      </trkpt>
      <trkpt lat="51.22004" lon="4.455672">
        <ele>6.2</ele>
        <time>2020-05-28T19:46:47Z</time>
      </trkpt>
      <trkpt lat="51.219968" lon="4.45553">
        <ele>5.8</ele>
        <time>2020-05-28T19:46:50Z</time>
      </trkpt>
      <trkpt lat="51.219897" lon="4.455397">
        <ele>5.5</ele>
        <time>2020-05-28T19:46:53Z</time>
      </trkpt>
      <trkpt lat="51.219822" lon="4.455274">
        <ele>5.1</ele>
        <time>2020-05-28T19:46:56Z</time>
      </trkpt>
      <trkpt lat="51.219738" lon="4.455143">
        <ele>4.7</ele>
        <time>2020-05-28T19:46:59Z</time>
      </trkpt>
      <trkpt lat="51.21967" lon="4.454989">
        <ele>4.5</ele>
        <time>2020-05-28T19:47:02Z</time>
      </trkpt>
      <trkpt lat="51.219614" lon="4.454831">
        <ele>4.2</ele>
        <time>2020-05-28T19:47:05Z</time>
      </trkpt>
      <trkpt lat="51.219559" lon="4.45467">
        <ele>4</ele>
        <time>2020-05-28T19:47:08Z</time>
      </trkpt>
      <trkpt lat="51.21954" lon="4.454492">
        <ele>3.9</ele>
        <time>2020-05-28T19:47:11Z</time>
      </trkpt>
      <trkpt lat="51.219522" lon="4.454325">
        <ele>3.8</ele>
        <time>2020-05-28T19:47:14Z</time>
      </trkpt>
      <trkpt lat="51.219498" lon="4.454161">
        <ele>3.7</ele>
        <time>2020-05-28T19:47:17Z</time>
      </trkpt>
      <trkpt lat="51.219464" lon="4.454011">
        <ele>3.6</ele>
        <time>2020-05-28T19:47:20Z</time>
      </trkpt>
      <trkpt lat="51.219406" lon="4.453884">
        <ele>3.6</ele>
        <time>2020-05-28T19:47:23Z</time>
      </trkpt>
      <trkpt lat="51.219327" lon="4.453777">
        <ele>3.7</ele>
        <time>2020-05-28T19:47:26Z</time>
      </trkpt>
      <trkpt lat="51.219405" lon="4.453722">
        <ele>3.8</ele>
        <time>2020-05-28T19:47:41Z</time>
      </trkpt>
      <trkpt lat="51.219417" lon="4.453593">
        <ele>4</ele>
        <time>2020-05-28T19:47:56Z</time>
      </trkpt>
      <trkpt lat="51.219379" lon="4.45346">
        <ele>4.2</ele>
        <time>2020-05-28T19:48:01Z</time>
      </trkpt>
      <trkpt lat="51.219338" lon="4.453319">
        <ele>4.4</ele>
        <time>2020-05-28T19:48:04Z</time>
      </trkpt>
      <trkpt lat="51.219282" lon="4.453165">
        <ele>4.5</ele>
        <time>2020-05-28T19:48:07Z</time>
      </trkpt>
      <trkpt lat="51.219229" lon="4.453006">
        <ele>4.6</ele>
        <time>2020-05-28T19:48:10Z</time>
      </trkpt>
      <trkpt lat="51.219175" lon="4.452859">
        <ele>4.7</ele>
        <time>2020-05-28T19:48:13Z</time>
      </trkpt>
      <trkpt lat="51.219131" lon="4.45273">
        <ele>4.8</ele>
        <time>2020-05-28T19:48:16Z</time>
      </trkpt>
      <trkpt lat="51.219077" lon="4.452619">
        <ele>5</ele>
        <time>2020-05-28T19:48:19Z</time>
      </trkpt>
      <trkpt lat="51.219036" lon="4.452507">
        <ele>5.3</ele>
        <time>2020-05-28T19:48:22Z</time>
      </trkpt>
      <trkpt lat="51.218992" lon="4.452397">
        <ele>5.5</ele>
        <time>2020-05-28T19:48:25Z</time>
      </trkpt>
      <trkpt lat="51.219021" lon="4.452231">
        <ele>5.8</ele>
        <time>2020-05-28T19:48:29Z</time>
      </trkpt>
      <trkpt lat="51.219102" lon="4.45209">
        <ele>6.1</ele>
        <time>2020-05-28T19:48:32Z</time>
      </trkpt>
      <trkpt lat="51.219184" lon="4.452052">
        <ele>6.4</ele>
        <time>2020-05-28T19:48:34Z</time>
      </trkpt>
      <trkpt lat="51.219267" lon="4.452064">
        <ele>6.6</ele>
        <time>2020-05-28T19:48:36Z</time>
      </trkpt>
      <trkpt lat="51.219381" lon="4.452057">
        <ele>6.9</ele>
        <time>2020-05-28T19:48:39Z</time>
      </trkpt>
      <trkpt lat="51.219491" lon="4.452049">
        <ele>7.1</ele>
        <time>2020-05-28T19:48:42Z</time>
      </trkpt>
      <trkpt lat="51.219573" lon="4.452039">
        <ele>7.3</ele>
        <time>2020-05-28T19:48:44Z</time>
      </trkpt>
      <trkpt lat="51.219656" lon="4.452033">
        <ele>7.5</ele>
        <time>2020-05-28T19:48:46Z</time>
      </trkpt>
      <trkpt lat="51.219775" lon="4.45201">
        <ele>7.7</ele>
        <time>2020-05-28T19:48:49Z</time>
      </trkpt>
      <trkpt lat="51.21989" lon="4.452003">
        <ele>7.8</ele>
        <time>2020-05-28T19:48:52Z</time>
      </trkpt>
      <trkpt lat="51.219979" lon="4.451987">
        <ele>7.8</ele>
        <time>2020-05-28T19:48:54Z</time>
      </trkpt>
      <trkpt lat="51.22007" lon="4.45196">
        <ele>7.7</ele>
        <time>2020-05-28T19:48:56Z</time>
      </trkpt>
      <trkpt lat="51.22016" lon="4.451945">
        <ele>7.6</ele>
        <time>2020-05-28T19:48:58Z</time>
      </trkpt>
      <trkpt lat="51.220279" lon="4.451912">
        <ele>7.5</ele>
        <time>2020-05-28T19:49:01Z</time>
      </trkpt>
      <trkpt lat="51.220392" lon="4.451907">
        <ele>7.2</ele>
        <time>2020-05-28T19:49:04Z</time>
      </trkpt>
      <trkpt lat="51.220507" lon="4.4519">
        <ele>6.9</ele>
        <time>2020-05-28T19:49:07Z</time>
      </trkpt>
      <trkpt lat="51.220613" lon="4.451872">
        <ele>6.6</ele>
        <time>2020-05-28T19:49:10Z</time>
      </trkpt>
      <trkpt lat="51.220716" lon="4.451851">
        <ele>6.3</ele>
        <time>2020-05-28T19:49:13Z</time>
      </trkpt>
      <trkpt lat="51.22082" lon="4.451835">
        <ele>5.8</ele>
        <time>2020-05-28T19:49:16Z</time>
      </trkpt>
      <trkpt lat="51.220921" lon="4.451822">
        <ele>5.3</ele>
        <time>2020-05-28T19:49:19Z</time>
      </trkpt>
      <trkpt lat="51.22102" lon="4.451803">
        <ele>4.7</ele>
        <time>2020-05-28T19:49:22Z</time>
      </trkpt>
      <trkpt lat="51.221122" lon="4.451786">
        <ele>4.2</ele>
        <time>2020-05-28T19:49:25Z</time>
      </trkpt>
      <trkpt lat="51.221227" lon="4.45178">
        <ele>3.7</ele>
        <time>2020-05-28T19:49:28Z</time>
      </trkpt>
      <trkpt lat="51.221335" lon="4.451745">
        <ele>3.3</ele>
        <time>2020-05-28T19:49:31Z</time>
      </trkpt>
      <trkpt lat="51.221418" lon="4.451719">
        <ele>3</ele>
        <time>2020-05-28T19:49:33Z</time>
      </trkpt>
      <trkpt lat="51.221503" lon="4.451695">
        <ele>2.9</ele>
        <time>2020-05-28T19:49:35Z</time>
      </trkpt>
      <trkpt lat="51.221585" lon="4.451647">
        <ele>2.9</ele>
        <time>2020-05-28T19:49:37Z</time>
      </trkpt>
      <trkpt lat="51.22166" lon="4.451591">
        <ele>3</ele>
        <time>2020-05-28T19:49:39Z</time>
      </trkpt>
      <trkpt lat="51.221746" lon="4.451536">
        <ele>3.3</ele>
        <time>2020-05-28T19:49:41Z</time>
      </trkpt>
      <trkpt lat="51.22186" lon="4.451463">
        <ele>3.5</ele>
        <time>2020-05-28T19:49:43Z</time>
      </trkpt>
      <trkpt lat="51.221943" lon="4.451399">
        <ele>3.8</ele>
        <time>2020-05-28T19:49:45Z</time>
      </trkpt>
      <trkpt lat="51.222028" lon="4.451349">
        <ele>4.1</ele>
        <time>2020-05-28T19:49:47Z</time>
      </trkpt>
      <trkpt lat="51.22211" lon="4.451308">
        <ele>4.4</ele>
        <time>2020-05-28T19:49:49Z</time>
      </trkpt>
      <trkpt lat="51.222214" lon="4.451233">
        <ele>4.5</ele>
        <time>2020-05-28T19:49:52Z</time>
      </trkpt>
      <trkpt lat="51.22231" lon="4.451203">
        <ele>4.6</ele>
        <time>2020-05-28T19:49:54Z</time>
      </trkpt>
      <trkpt lat="51.222397" lon="4.451173">
        <ele>4.5</ele>
        <time>2020-05-28T19:49:56Z</time>
      </trkpt>
      <trkpt lat="51.222477" lon="4.451153">
        <ele>4.3</ele>
        <time>2020-05-28T19:49:58Z</time>
      </trkpt>
      <trkpt lat="51.222559" lon="4.451139">
        <ele>3.7</ele>
        <time>2020-05-28T19:50:00Z</time>
      </trkpt>
      <trkpt lat="51.22267" lon="4.451112">
        <ele>3.1</ele>
        <time>2020-05-28T19:50:03Z</time>
      </trkpt>
      <trkpt lat="51.222753" lon="4.451105">
        <ele>2.3</ele>
        <time>2020-05-28T19:50:06Z</time>
      </trkpt>
      <trkpt lat="51.222842" lon="4.45106">
        <ele>1.5</ele>
        <time>2020-05-28T19:50:09Z</time>
      </trkpt>
      <trkpt lat="51.222942" lon="4.451086">
        <ele>0.7</ele>
        <time>2020-05-28T19:50:12Z</time>
      </trkpt>
      <trkpt lat="51.223033" lon="4.451125">
        <ele>0</ele>
        <time>2020-05-28T19:50:15Z</time>
      </trkpt>
      <trkpt lat="51.223141" lon="4.451155">
        <ele>0</ele>
        <time>2020-05-28T19:50:18Z</time>
      </trkpt>
      <trkpt lat="51.223222" lon="4.451167">
        <ele>0</ele>
        <time>2020-05-28T19:50:20Z</time>
      </trkpt>
      <trkpt lat="51.223331" lon="4.451217">
        <ele>0</ele>
        <time>2020-05-28T19:50:23Z</time>
      </trkpt>
      <trkpt lat="51.223424" lon="4.45127">
        <ele>0</ele>
        <time>2020-05-28T19:50:26Z</time>
      </trkpt>
      <trkpt lat="51.223515" lon="4.451321">
        <ele>0</ele>
        <time>2020-05-28T19:50:30Z</time>
      </trkpt>
      <trkpt lat="51.223587" lon="4.451429">
        <ele>0</ele>
        <time>2020-05-28T19:50:34Z</time>
      </trkpt>
      <trkpt lat="51.223647" lon="4.451516">
        <ele>0</ele>
        <time>2020-05-28T19:50:37Z</time>
      </trkpt>
      <trkpt lat="51.223715" lon="4.45161">
        <ele>0</ele>
        <time>2020-05-28T19:50:40Z</time>
      </trkpt>
      <trkpt lat="51.223797" lon="4.451706">
        <ele>0</ele>
        <time>2020-05-28T19:50:43Z</time>
      </trkpt>
      <trkpt lat="51.223878" lon="4.451774">
        <ele>0</ele>
        <time>2020-05-28T19:50:46Z</time>
      </trkpt>
      <trkpt lat="51.223958" lon="4.451814">
        <ele>0</ele>
        <time>2020-05-28T19:50:50Z</time>
      </trkpt>
      <trkpt lat="51.223964" lon="4.451813">
        <ele>0</ele>
        <time>2020-05-28T19:50:52Z</time>
      </trkpt>
      <trkpt lat="51.223975" lon="4.451806">
        <ele>0</ele>
        <time>2020-05-28T19:51:56Z</time>
      </trkpt>
      <trkpt lat="51.22404" lon="4.451851">
        <ele>0</ele>
        <time>2020-05-28T19:52:00Z</time>
      </trkpt>
      <trkpt lat="51.224134" lon="4.45192">
        <ele>0</ele>
        <time>2020-05-28T19:52:04Z</time>
      </trkpt>
      <trkpt lat="51.224217" lon="4.451968">
        <ele>0</ele>
        <time>2020-05-28T19:52:07Z</time>
      </trkpt>
      <trkpt lat="51.224307" lon="4.452013">
        <ele>0</ele>
        <time>2020-05-28T19:52:10Z</time>
      </trkpt>
      <trkpt lat="51.224393" lon="4.452058">
        <ele>0</ele>
        <time>2020-05-28T19:52:13Z</time>
      </trkpt>
      <trkpt lat="51.224483" lon="4.452094">
        <ele>0.5</ele>
        <time>2020-05-28T19:52:16Z</time>
      </trkpt>
      <trkpt lat="51.224576" lon="4.452094">
        <ele>1.2</ele>
        <time>2020-05-28T19:52:19Z</time>
      </trkpt>
      <trkpt lat="51.224666" lon="4.452087">
        <ele>1.8</ele>
        <time>2020-05-28T19:52:22Z</time>
      </trkpt>
      <trkpt lat="51.224756" lon="4.452138">
        <ele>2.5</ele>
        <time>2020-05-28T19:52:25Z</time>
      </trkpt>
      <trkpt lat="51.224852" lon="4.452169">
        <ele>3</ele>
        <time>2020-05-28T19:52:28Z</time>
      </trkpt>
      <trkpt lat="51.224952" lon="4.452185">
        <ele>3.5</ele>
        <time>2020-05-28T19:52:31Z</time>
      </trkpt>
      <trkpt lat="51.225043" lon="4.45221">
        <ele>3.9</ele>
        <time>2020-05-28T19:52:34Z</time>
      </trkpt>
      <trkpt lat="51.225046" lon="4.452356">
        <ele>4.3</ele>
        <time>2020-05-28T19:52:37Z</time>
      </trkpt>
      <trkpt lat="51.224998" lon="4.452504">
        <ele>4.5</ele>
        <time>2020-05-28T19:52:40Z</time>
      </trkpt>
      <trkpt lat="51.224964" lon="4.452648">
        <ele>4.5</ele>
        <time>2020-05-28T19:52:43Z</time>
      </trkpt>
      <trkpt lat="51.224934" lon="4.452791">
        <ele>4.6</ele>
        <time>2020-05-28T19:52:46Z</time>
      </trkpt>
      <trkpt lat="51.224914" lon="4.452935">
        <ele>4.6</ele>
        <time>2020-05-28T19:52:49Z</time>
      </trkpt>
      <trkpt lat="51.224914" lon="4.453094">
        <ele>4.5</ele>
        <time>2020-05-28T19:52:52Z</time>
      </trkpt>
      <trkpt lat="51.224921" lon="4.453232">
        <ele>4.5</ele>
        <time>2020-05-28T19:52:55Z</time>
      </trkpt>
      <trkpt lat="51.225009" lon="4.453316">
        <ele>4.4</ele>
        <time>2020-05-28T19:52:59Z</time>
      </trkpt>
      <trkpt lat="51.225089" lon="4.453292">
        <ele>4.3</ele>
        <time>2020-05-28T19:53:02Z</time>
      </trkpt>
      <trkpt lat="51.225195" lon="4.45329">
        <ele>4.3</ele>
        <time>2020-05-28T19:53:06Z</time>
      </trkpt>
      <trkpt lat="51.225284" lon="4.453292">
        <ele>4.3</ele>
        <time>2020-05-28T19:53:09Z</time>
      </trkpt>
      <trkpt lat="51.225384" lon="4.453298">
        <ele>4.3</ele>
        <time>2020-05-28T19:53:12Z</time>
      </trkpt>
      <trkpt lat="51.225476" lon="4.453297">
        <ele>4.4</ele>
        <time>2020-05-28T19:53:15Z</time>
      </trkpt>
      <trkpt lat="51.225577" lon="4.453313">
        <ele>4.5</ele>
        <time>2020-05-28T19:53:18Z</time>
      </trkpt>
      <trkpt lat="51.22568" lon="4.453282">
        <ele>4.5</ele>
        <time>2020-05-28T19:53:21Z</time>
      </trkpt>
      <trkpt lat="51.225781" lon="4.453278">
        <ele>4.6</ele>
        <time>2020-05-28T19:53:24Z</time>
      </trkpt>
      <trkpt lat="51.22587" lon="4.45328">
        <ele>4.7</ele>
        <time>2020-05-28T19:53:27Z</time>
      </trkpt>
      <trkpt lat="51.225958" lon="4.453269">
        <ele>4.8</ele>
        <time>2020-05-28T19:53:30Z</time>
      </trkpt>
      <trkpt lat="51.226046" lon="4.453282">
        <ele>4.9</ele>
        <time>2020-05-28T19:53:33Z</time>
      </trkpt>
      <trkpt lat="51.226137" lon="4.45329">
        <ele>5</ele>
        <time>2020-05-28T19:53:36Z</time>
      </trkpt>
      <trkpt lat="51.226228" lon="4.453288">
        <ele>5</ele>
        <time>2020-05-28T19:53:39Z</time>
      </trkpt>
      <trkpt lat="51.226322" lon="4.453284">
        <ele>5.1</ele>
        <time>2020-05-28T19:53:42Z</time>
      </trkpt>
      <trkpt lat="51.226412" lon="4.453278">
        <ele>5.2</ele>
        <time>2020-05-28T19:53:45Z</time>
      </trkpt>
      <trkpt lat="51.226502" lon="4.453278">
        <ele>5.4</ele>
        <time>2020-05-28T19:54:04Z</time>
      </trkpt>
      <trkpt lat="51.226598" lon="4.453287">
        <ele>5.5</ele>
        <time>2020-05-28T19:54:08Z</time>
      </trkpt>
      <trkpt lat="51.226688" lon="4.453238">
        <ele>5.7</ele>
        <time>2020-05-28T19:54:12Z</time>
      </trkpt>
      <trkpt lat="51.226775" lon="4.45322">
        <ele>5.8</ele>
        <time>2020-05-28T19:54:16Z</time>
      </trkpt>
      <trkpt lat="51.226859" lon="4.453199">
        <ele>5.9</ele>
        <time>2020-05-28T19:54:20Z</time>
      </trkpt>
      <trkpt lat="51.226877" lon="4.453051">
        <ele>6</ele>
        <time>2020-05-28T19:54:24Z</time>
      </trkpt>
      <trkpt lat="51.226874" lon="4.452907">
        <ele>6.1</ele>
        <time>2020-05-28T19:54:27Z</time>
      </trkpt>
      <trkpt lat="51.226875" lon="4.452774">
        <ele>6.2</ele>
        <time>2020-05-28T19:54:30Z</time>
      </trkpt>
      <trkpt lat="51.226884" lon="4.452632">
        <ele>6.3</ele>
        <time>2020-05-28T19:54:33Z</time>
      </trkpt>
      <trkpt lat="51.226887" lon="4.452471">
        <ele>6.3</ele>
        <time>2020-05-28T19:54:36Z</time>
      </trkpt>
      <trkpt lat="51.226905" lon="4.452301">
        <ele>6.2</ele>
        <time>2020-05-28T19:54:39Z</time>
      </trkpt>
      <trkpt lat="51.226912" lon="4.452131">
        <ele>6</ele>
        <time>2020-05-28T19:54:42Z</time>
      </trkpt>
      <trkpt lat="51.226917" lon="4.451955">
        <ele>5.8</ele>
        <time>2020-05-28T19:54:45Z</time>
      </trkpt>
      <trkpt lat="51.22691" lon="4.451793">
        <ele>5.6</ele>
        <time>2020-05-28T19:54:48Z</time>
      </trkpt>
      <trkpt lat="51.226905" lon="4.451619">
        <ele>5.5</ele>
        <time>2020-05-28T19:54:51Z</time>
      </trkpt>
      <trkpt lat="51.226909" lon="4.451439">
        <ele>5.5</ele>
        <time>2020-05-28T19:54:54Z</time>
      </trkpt>
      <trkpt lat="51.22691" lon="4.451269">
        <ele>5.4</ele>
        <time>2020-05-28T19:54:57Z</time>
      </trkpt>
      <trkpt lat="51.226915" lon="4.451109">
        <ele>5.4</ele>
        <time>2020-05-28T19:55:00Z</time>
      </trkpt>
      <trkpt lat="51.226928" lon="4.450949">
        <ele>5.4</ele>
        <time>2020-05-28T19:55:03Z</time>
      </trkpt>
      <trkpt lat="51.226924" lon="4.450794">
        <ele>5.4</ele>
        <time>2020-05-28T19:55:06Z</time>
      </trkpt>
      <trkpt lat="51.22693" lon="4.450638">
        <ele>5.4</ele>
        <time>2020-05-28T19:55:09Z</time>
      </trkpt>
      <trkpt lat="51.22694" lon="4.450482">
        <ele>5.4</ele>
        <time>2020-05-28T19:55:13Z</time>
      </trkpt>
      <trkpt lat="51.226944" lon="4.450352">
        <ele>5.3</ele>
        <time>2020-05-28T19:55:16Z</time>
      </trkpt>
      <trkpt lat="51.226957" lon="4.450206">
        <ele>5.2</ele>
        <time>2020-05-28T19:55:20Z</time>
      </trkpt>
      <trkpt lat="51.226959" lon="4.450056">
        <ele>5</ele>
        <time>2020-05-28T19:55:28Z</time>
      </trkpt>
      <trkpt lat="51.226939" lon="4.449888">
        <ele>4.8</ele>
        <time>2020-05-28T19:55:32Z</time>
      </trkpt>
      <trkpt lat="51.226946" lon="4.449731">
        <ele>4.5</ele>
        <time>2020-05-28T19:55:36Z</time>
      </trkpt>
      <trkpt lat="51.226952" lon="4.449552">
        <ele>4.3</ele>
        <time>2020-05-28T19:55:40Z</time>
      </trkpt>
      <trkpt lat="51.226909" lon="4.449397">
        <ele>3.9</ele>
        <time>2020-05-28T19:55:44Z</time>
      </trkpt>
      <trkpt lat="51.226906" lon="4.44926">
        <ele>3.6</ele>
        <time>2020-05-28T19:55:48Z</time>
      </trkpt>
      <trkpt lat="51.226928" lon="4.449099">
        <ele>3.4</ele>
        <time>2020-05-28T19:55:52Z</time>
      </trkpt>
      <trkpt lat="51.226943" lon="4.44896">
        <ele>3.2</ele>
        <time>2020-05-28T19:55:55Z</time>
      </trkpt>
      <trkpt lat="51.226971" lon="4.448823">
        <ele>3.1</ele>
        <time>2020-05-28T19:55:58Z</time>
      </trkpt>
      <trkpt lat="51.227039" lon="4.448707">
        <ele>3.1</ele>
        <time>2020-05-28T19:56:01Z</time>
      </trkpt>
      <trkpt lat="51.227116" lon="4.448588">
        <ele>3.1</ele>
        <time>2020-05-28T19:56:04Z</time>
      </trkpt>
      <trkpt lat="51.227185" lon="4.448458">
        <ele>3.2</ele>
        <time>2020-05-28T19:56:07Z</time>
      </trkpt>
      <trkpt lat="51.227281" lon="4.448354">
        <ele>3.3</ele>
        <time>2020-05-28T19:56:10Z</time>
      </trkpt>
      <trkpt lat="51.227357" lon="4.448249">
        <ele>3.5</ele>
        <time>2020-05-28T19:56:13Z</time>
      </trkpt>
      <trkpt lat="51.227424" lon="4.448138">
        <ele>3.5</ele>
        <time>2020-05-28T19:56:16Z</time>
      </trkpt>
      <trkpt lat="51.22748" lon="4.448017">
        <ele>3.6</ele>
        <time>2020-05-28T19:56:19Z</time>
      </trkpt>
      <trkpt lat="51.22754" lon="4.447915">
        <ele>3.5</ele>
        <time>2020-05-28T19:56:23Z</time>
      </trkpt>
      <trkpt lat="51.227604" lon="4.447827">
        <ele>3.5</ele>
        <time>2020-05-28T19:56:26Z</time>
      </trkpt>
      <trkpt lat="51.227683" lon="4.447732">
        <ele>3.3</ele>
        <time>2020-05-28T19:56:29Z</time>
      </trkpt>
      <trkpt lat="51.227765" lon="4.447622">
        <ele>3.2</ele>
        <time>2020-05-28T19:56:32Z</time>
      </trkpt>
      <trkpt lat="51.227859" lon="4.447512">
        <ele>3.2</ele>
        <time>2020-05-28T19:56:35Z</time>
      </trkpt>
      <trkpt lat="51.227949" lon="4.447383">
        <ele>3.2</ele>
        <time>2020-05-28T19:56:38Z</time>
      </trkpt>
      <trkpt lat="51.228008" lon="4.447293">
        <ele>3.3</ele>
        <time>2020-05-28T19:56:40Z</time>
      </trkpt>
      <trkpt lat="51.228089" lon="4.447172">
        <ele>3.5</ele>
        <time>2020-05-28T19:56:43Z</time>
      </trkpt>
      <trkpt lat="51.22817" lon="4.447041">
        <ele>3.6</ele>
        <time>2020-05-28T19:56:46Z</time>
      </trkpt>
      <trkpt lat="51.22826" lon="4.446909">
        <ele>4</ele>
        <time>2020-05-28T19:56:49Z</time>
      </trkpt>
      <trkpt lat="51.228317" lon="4.446816">
        <ele>4.4</ele>
        <time>2020-05-28T19:56:51Z</time>
      </trkpt>
      <trkpt lat="51.228391" lon="4.446701">
        <ele>4.7</ele>
        <time>2020-05-28T19:56:54Z</time>
      </trkpt>
      <trkpt lat="51.228464" lon="4.446602">
        <ele>5</ele>
        <time>2020-05-28T19:56:57Z</time>
      </trkpt>
      <trkpt lat="51.228524" lon="4.446484">
        <ele>5.3</ele>
        <time>2020-05-28T19:57:00Z</time>
      </trkpt>
      <trkpt lat="51.228596" lon="4.446378">
        <ele>5.5</ele>
        <time>2020-05-28T19:57:03Z</time>
      </trkpt>
      <trkpt lat="51.228672" lon="4.446283">
        <ele>5.5</ele>
        <time>2020-05-28T19:57:06Z</time>
      </trkpt>
      <trkpt lat="51.228741" lon="4.446191">
        <ele>5.5</ele>
        <time>2020-05-28T19:57:09Z</time>
      </trkpt>
      <trkpt lat="51.228824" lon="4.446089">
        <ele>5.4</ele>
        <time>2020-05-28T19:57:12Z</time>
      </trkpt>
      <trkpt lat="51.228902" lon="4.445983">
        <ele>5.2</ele>
        <time>2020-05-28T19:57:15Z</time>
      </trkpt>
      <trkpt lat="51.228995" lon="4.445863">
        <ele>4.9</ele>
        <time>2020-05-28T19:57:18Z</time>
      </trkpt>
      <trkpt lat="51.229061" lon="4.445787">
        <ele>4.5</ele>
        <time>2020-05-28T19:57:20Z</time>
      </trkpt>
      <trkpt lat="51.22915" lon="4.445662">
        <ele>4.2</ele>
        <time>2020-05-28T19:57:23Z</time>
      </trkpt>
      <trkpt lat="51.229236" lon="4.445535">
        <ele>3.8</ele>
        <time>2020-05-28T19:57:26Z</time>
      </trkpt>
      <trkpt lat="51.229324" lon="4.445408">
        <ele>3.5</ele>
        <time>2020-05-28T19:57:29Z</time>
      </trkpt>
      <trkpt lat="51.229405" lon="4.445275">
        <ele>3.2</ele>
        <time>2020-05-28T19:57:32Z</time>
      </trkpt>
      <trkpt lat="51.229496" lon="4.445158">
        <ele>2.8</ele>
        <time>2020-05-28T19:57:35Z</time>
      </trkpt>
      <trkpt lat="51.229574" lon="4.445052">
        <ele>2.5</ele>
        <time>2020-05-28T19:57:38Z</time>
      </trkpt>
      <trkpt lat="51.229634" lon="4.444947">
        <ele>2.3</ele>
        <time>2020-05-28T19:57:41Z</time>
      </trkpt>
      <trkpt lat="51.229693" lon="4.444837">
        <ele>2</ele>
        <time>2020-05-28T19:57:44Z</time>
      </trkpt>
      <trkpt lat="51.229707" lon="4.444664">
        <ele>1.7</ele>
        <time>2020-05-28T19:57:48Z</time>
      </trkpt>
      <trkpt lat="51.229655" lon="4.444539">
        <ele>1.5</ele>
        <time>2020-05-28T19:57:51Z</time>
      </trkpt>
      <trkpt lat="51.229611" lon="4.4444">
        <ele>1.4</ele>
        <time>2020-05-28T19:57:54Z</time>
      </trkpt>
      <trkpt lat="51.229559" lon="4.444258">
        <ele>1.2</ele>
        <time>2020-05-28T19:57:57Z</time>
      </trkpt>
      <trkpt lat="51.2295" lon="4.444128">
        <ele>1.1</ele>
        <time>2020-05-28T19:58:00Z</time>
      </trkpt>
      <trkpt lat="51.229539" lon="4.444003">
        <ele>1</ele>
        <time>2020-05-28T19:58:04Z</time>
      </trkpt>
      <trkpt lat="51.229575" lon="4.444121">
        <ele>1</ele>
        <time>2020-05-28T19:58:07Z</time>
      </trkpt>
      <trkpt lat="51.229596" lon="4.444285">
        <ele>1</ele>
        <time>2020-05-28T19:58:11Z</time>
      </trkpt>
      <trkpt lat="51.229636" lon="4.44443">
        <ele>1</ele>
        <time>2020-05-28T19:58:14Z</time>
      </trkpt>
      <trkpt lat="51.229687" lon="4.444592">
        <ele>1</ele>
        <time>2020-05-28T19:58:17Z</time>
      </trkpt>
      <trkpt lat="51.22972" lon="4.444725">
        <ele>1</ele>
        <time>2020-05-28T19:58:20Z</time>
      </trkpt>
      <trkpt lat="51.229722" lon="4.444731">
        <ele>1</ele>
        <time>2020-05-28T19:58:24Z</time>
      </trkpt>
      <trkpt lat="51.229675" lon="4.444837">
        <ele>2.8</ele>
        <time>2020-05-28T20:00:34Z</time>
      </trkpt>
      <trkpt lat="51.229598" lon="4.444942">
        <ele>3</ele>
        <time>2020-05-28T20:00:39Z</time>
      </trkpt>
      <trkpt lat="51.229531" lon="4.445029">
        <ele>3.1</ele>
        <time>2020-05-28T20:00:43Z</time>
      </trkpt>
      <trkpt lat="51.229456" lon="4.445135">
        <ele>3.2</ele>
        <time>2020-05-28T20:00:47Z</time>
      </trkpt>
      <trkpt lat="51.229394" lon="4.445227">
        <ele>3.3</ele>
        <time>2020-05-28T20:00:50Z</time>
      </trkpt>
      <trkpt lat="51.229331" lon="4.445328">
        <ele>3.5</ele>
        <time>2020-05-28T20:00:53Z</time>
      </trkpt>
      <trkpt lat="51.22926" lon="4.445424">
        <ele>3.7</ele>
        <time>2020-05-28T20:00:56Z</time>
      </trkpt>
      <trkpt lat="51.229197" lon="4.445541">
        <ele>4</ele>
        <time>2020-05-28T20:00:59Z</time>
      </trkpt>
      <trkpt lat="51.229132" lon="4.445651">
        <ele>4.3</ele>
        <time>2020-05-28T20:01:02Z</time>
      </trkpt>
      <trkpt lat="51.229051" lon="4.44575">
        <ele>4.6</ele>
        <time>2020-05-28T20:01:05Z</time>
      </trkpt>
      <trkpt lat="51.228975" lon="4.445862">
        <ele>5</ele>
        <time>2020-05-28T20:01:08Z</time>
      </trkpt>
      <trkpt lat="51.2289" lon="4.445973">
        <ele>5.2</ele>
        <time>2020-05-28T20:01:11Z</time>
      </trkpt>
      <trkpt lat="51.228826" lon="4.446074">
        <ele>5.4</ele>
        <time>2020-05-28T20:01:14Z</time>
      </trkpt>
      <trkpt lat="51.228752" lon="4.446164">
        <ele>5.5</ele>
        <time>2020-05-28T20:01:17Z</time>
      </trkpt>
      <trkpt lat="51.228681" lon="4.446282">
        <ele>5.5</ele>
        <time>2020-05-28T20:01:20Z</time>
      </trkpt>
      <trkpt lat="51.228615" lon="4.446375">
        <ele>5.5</ele>
        <time>2020-05-28T20:01:23Z</time>
      </trkpt>
      <trkpt lat="51.228536" lon="4.446477">
        <ele>5.3</ele>
        <time>2020-05-28T20:01:26Z</time>
      </trkpt>
      <trkpt lat="51.228455" lon="4.446576">
        <ele>5.1</ele>
        <time>2020-05-28T20:01:29Z</time>
      </trkpt>
      <trkpt lat="51.228389" lon="4.446671">
        <ele>4.9</ele>
        <time>2020-05-28T20:01:32Z</time>
      </trkpt>
      <trkpt lat="51.228321" lon="4.446774">
        <ele>4.6</ele>
        <time>2020-05-28T20:01:35Z</time>
      </trkpt>
      <trkpt lat="51.228258" lon="4.446894">
        <ele>4.3</ele>
        <time>2020-05-28T20:01:38Z</time>
      </trkpt>
      <trkpt lat="51.228199" lon="4.446985">
        <ele>3.9</ele>
        <time>2020-05-28T20:01:41Z</time>
      </trkpt>
      <trkpt lat="51.22826" lon="4.447098">
        <ele>3.5</ele>
        <time>2020-05-28T20:01:55Z</time>
      </trkpt>
      <trkpt lat="51.228311" lon="4.447238">
        <ele>3.2</ele>
        <time>2020-05-28T20:01:59Z</time>
      </trkpt>
      <trkpt lat="51.228374" lon="4.447341">
        <ele>2.9</ele>
        <time>2020-05-28T20:02:02Z</time>
      </trkpt>
      <trkpt lat="51.228454" lon="4.447413">
        <ele>2.8</ele>
        <time>2020-05-28T20:02:05Z</time>
      </trkpt>
      <trkpt lat="51.228529" lon="4.44753">
        <ele>2.7</ele>
        <time>2020-05-28T20:02:08Z</time>
      </trkpt>
      <trkpt lat="51.2286" lon="4.447659">
        <ele>2.7</ele>
        <time>2020-05-28T20:02:11Z</time>
      </trkpt>
      <trkpt lat="51.228673" lon="4.44779">
        <ele>2.7</ele>
        <time>2020-05-28T20:02:14Z</time>
      </trkpt>
      <trkpt lat="51.228743" lon="4.447902">
        <ele>2.7</ele>
        <time>2020-05-28T20:02:17Z</time>
      </trkpt>
      <trkpt lat="51.22881" lon="4.448005">
        <ele>2.8</ele>
        <time>2020-05-28T20:02:20Z</time>
      </trkpt>
      <trkpt lat="51.228883" lon="4.448123">
        <ele>2.9</ele>
        <time>2020-05-28T20:02:23Z</time>
      </trkpt>
      <trkpt lat="51.228962" lon="4.448235">
        <ele>3</ele>
        <time>2020-05-28T20:02:26Z</time>
      </trkpt>
      <trkpt lat="51.229032" lon="4.448337">
        <ele>3.2</ele>
        <time>2020-05-28T20:02:29Z</time>
      </trkpt>
      <trkpt lat="51.229069" lon="4.448474">
        <ele>3.3</ele>
        <time>2020-05-28T20:02:33Z</time>
      </trkpt>
      <trkpt lat="51.228977" lon="4.448564">
        <ele>3.4</ele>
        <time>2020-05-28T20:02:38Z</time>
      </trkpt>
      <trkpt lat="51.228889" lon="4.44867">
        <ele>3.4</ele>
        <time>2020-05-28T20:02:41Z</time>
      </trkpt>
      <trkpt lat="51.228819" lon="4.448772">
        <ele>3.4</ele>
        <time>2020-05-28T20:02:44Z</time>
      </trkpt>
      <trkpt lat="51.228728" lon="4.44884">
        <ele>3.4</ele>
        <time>2020-05-28T20:02:47Z</time>
      </trkpt>
      <trkpt lat="51.228645" lon="4.448937">
        <ele>3.4</ele>
        <time>2020-05-28T20:02:50Z</time>
      </trkpt>
      <trkpt lat="51.228571" lon="4.449073">
        <ele>3.4</ele>
        <time>2020-05-28T20:02:53Z</time>
      </trkpt>
      <trkpt lat="51.228558" lon="4.449209">
        <ele>3.4</ele>
        <time>2020-05-28T20:02:56Z</time>
      </trkpt>
      <trkpt lat="51.228485" lon="4.449297">
        <ele>3.3</ele>
        <time>2020-05-28T20:03:00Z</time>
      </trkpt>
      <trkpt lat="51.22846" lon="4.449303">
        <ele>3.2</ele>
        <time>2020-05-28T20:03:08Z</time>
      </trkpt>
    </trkseg>
  </trk>
</gpx>